메인 페이지
METAR-TAF:

METAR-TAF

공항 :

Charlotte County Airport

Punta Gorda, 플로리다, 미국

위도: 26-55-04N, 경도: 081-59-37W, 고도: 7m

현재 날씨관측

예보는 38분 전, 23:14시(UTC)에 발표되었습니다.
13kt, 순간 최대 풍속 19kt
온도 26°C
습도 84%
기압 1010 hPa
시정: 16.1km
고도 2000ft 상공 구름 조금
고도 2400ft 상공 구름 보통
고도 2900ft 상공 구름 많음
약한비

METAR: KPGD 312314Z 26013G19KT 10SM -RA FEW020 SCT024 BKN029 26/23 A2982 RMK AO2 P0000 T02610228

시각: 19:52 (23:52 UTC)

예보

예보는 6분 전, 23:46시(UTC)에 발표되었습니다.
예보 대상 시간: 01일 00시부터 01일 24시까지 (UTC)
13kt, 순간 최대 풍속 19kt
시정: 10km
고도 2500ft 상공 구름 보통
일시적
01일 00시부터 01일 03시까지 (UTC)
고도 2500ft 상공 구름 많음
01일 0300시부터 (UTC)
서남서11kt, 순간 최대 풍속 18kt
시정: 10km
고도 800ft 상공 구름 보통
고도 4000ft 상공 구름 많음, 적란운.
시계 내 뇌우
01일 0600시부터 (UTC)
12kt
시정: 10km
고도 800ft 상공 구름 조금
고도 4000ft 상공 구름 보통, 적란운.
시계 내 뇌우
01일 0900시부터 (UTC)
서북서11kt
시정: 10km
고도 800ft 상공 구름 조금
고도 6000ft 상공 구름 보통
01일 1200시부터 (UTC)
북북서10kt
시정: 10km
고도 1100ft 상공 구름 조금
고도 25000ft 상공 구름 조금

TAF: KPGD 312346Z 0100/0124 26013G19KT P6SM SCT025 TEMPO 0100/0103 BKN025 FM010300 24011G18KT P6SM VCTS SCT008 BKN040CB FM010600 27012KT P6SM VCTS FEW008 SCT040CB FM010900 30011KT P6SM FEW008 SCT060 FM011200 34010KT P6SM FEW011 FEW250

4,000개 이상의 공항 관측 자료 및 예보 (METAR 및 TAF 보고).

지도상에서 검색 가능한 기상관측소가 노란 점과 빨간 점으로 표시되어 있습니다.

기상관측소 명을 보려면 표시 위로 마우스를 이동하세요.

날씨 관측과 예보를 보려면 클릭하세요.

지도 변경 : 확대하려면 엑스 표시가 있는 녹색 버튼, 축소하려면 빼기 표시가 있는 녹색 버튼, 다음 페이지의 지도를 보려면 녹색 화살표를 클릭하세요.


METAR-TAF: